Pierrepont, New York
Current Conditions -  °F | °C
As of 3:53 AM on Friday 19 Dec 2014 (Local Time) from KMSS Reporting Station
Overcast Overcast  
Wind Chill: 14°   Ceiling: 1500
Heat Index: 24°   Visibility: 10mi
Dew Point: 17°   Wind: 10mph
Humidity: 75%   Direction: 280°W
Pressure: 30.03"   Gusts: NA
Location:  44.5792°N, 75.1592°W
Report Text: KMSS 190853Z AUTO 28009KT 10SM OVC015 M04/M08 A3003 RMK AO2 SLP177 T10441083 51009
Loading
Personal Weather Stations






























Interactive Weather Map New forecast layout! Learn more

10-Day Weather Forecast

Advertisements
Track Severe Weather on mobile